LFRS/NTE METAR and TAF weather

Enter ICAO airport designator
Station Type Date Time Source
LFRS METAR 2020/02/29 03:30 UTC NOAA

LFRS 290330Z AUTO 18016KT CAVOK 11/08 Q0996 TEMPO 3000 RA BKN012


Station Type Date Time Source
LFRS Decoded METAR 2020/02/29 03:30 UTC NOAA

Nantes, France (LFRS) 47-10N 001-36W 27M
Feb 28, 2020 - 10:30 PM EST / 2020.02.29 0330 UTC
Wind: from the S (180 degrees) at 18 MPH (16 KT):0
Visibility: greater than 7 mile(s):0
Weather: Cumulonimbus clouds observed
Temperature: 51 F (11 C)
Dew Point: 46 F (8 C)
Relative Humidity: 81%
Pressure (altimeter): 29.41 in. Hg (0996 hPa)
ob: LFRS 290330Z AUTO 18016KT CAVOK 11/08 Q0996 TEMPO 3000 RA BKN012 SCT030CB BECMG 21020G40KT
cycle: 3

Station Type Date Time Source
LFRS TAF 2020/02/28 18:21 UTC NOAA

TAF LFRS 281700Z 2818/2924 21012KT 9999 BKN010
TEMPO 2818/2820 3000 DZRA OVC004
BECMG 2820/2822 CAVOK
BECMG 2900/2902 18015G25KT
BECMG 2904/2906 22020G40KT 4000 RA BKN014 SCT030CB
BECMG 2908/2910 28015G25KT 9999 NSW SCT020
TEMPO 2912/2920 28020G40KT 3000 SHRAGS BKN020CB

Example: see airport list